Time;durP1;ratioP1;P1;durP2;ratioP2;P2;SDS_P1;SDS_P2;PMS_P1;PMS_P2;Temp;Humidity;BMP_temperature;BMP_pressure;BME280_temperature;BME280_humidity;BME280_pressure;Samples;Min_cycle;Max_cycle;Signal;HPM_P1;HPM_P2
2023/05/29 00:02:02;;;;;;;1.15;0.93;;;;;;;22.46;38.88;101105.31;4537435;28;20080;-66
2023/05/29 00:04:13;;;;;;;1.38;1.00;;;;;;;22.48;39.21;101113.56;4523518;28;20716;-66
2023/05/29 00:06:24;;;;;;;1.40;1.00;;;;;;;22.47;39.20;101115.59;4528442;28;20068;-66
2023/05/29 00:08:35;;;;;;;1.48;1.00;;;;;;;22.48;39.19;101122.19;4537667;28;20127;-66
2023/05/29 00:10:45;;;;;;;1.40;1.00;;;;;;;22.45;38.92;101109.41;4523180;28;20033;-66
2023/05/29 00:12:56;;;;;;;1.10;0.90;;;;;;;22.43;39.09;101106.03;4521373;28;20021;-66
2023/05/29 00:15:09;;;;;;;1.98;0.90;;;;;;;22.47;39.27;101126.28;4521122;28;20528;-66
2023/05/29 00:17:20;;;;;;;2.15;1.00;;;;;;;22.44;39.21;101116.34;4521971;28;20025;-66
2023/05/29 00:19:31;;;;;;;1.25;1.00;;;;;;;22.43;39.20;101120.44;4521922;28;20041;-66
2023/05/29 00:21:41;;;;;;;1.20;1.00;;;;;;;22.46;38.81;101124.59;4536042;28;20062;-66
2023/05/29 00:23:52;;;;;;;1.05;0.95;;;;;;;22.45;39.06;101125.81;4520870;28;20020;-66
2023/05/29 00:26:02;;;;;;;1.17;1.00;;;;;;;22.45;38.66;101122.94;4521682;28;20068;-66
2023/05/29 00:28:13;;;;;;;1.65;1.20;;;;;;;22.42;39.01;101117.91;4521784;28;20421;-66
2023/05/29 00:30:23;;;;;;;1.00;0.90;;;;;;;22.44;38.65;101127.03;4521534;28;20067;-66
2023/05/29 00:32:34;;;;;;;1.20;1.00;;;;;;;22.44;38.97;101127.84;4520311;28;20327;-66
2023/05/29 00:34:45;;;;;;;1.23;1.00;;;;;;;22.44;38.82;101124.97;4522037;28;20030;-66
2023/05/29 00:36:55;;;;;;;1.35;0.98;;;;;;;22.42;39.00;101129.44;4523028;28;20776;-66
2023/05/29 00:39:06;;;;;;;1.88;1.10;;;;;;;22.38;38.88;101129.31;4524275;28;20043;-66
2023/05/29 00:41:16;;;;;;;1.55;0.90;;;;;;;22.43;38.75;101139.72;4521839;28;20037;-66
2023/05/29 00:43:27;;;;;;;1.27;1.00;;;;;;;22.44;39.25;101135.66;4537244;28;20032;-66
2023/05/29 00:45:37;;;;;;;1.33;0.80;;;;;;;22.44;38.61;101138.53;4521660;28;20085;-66
2023/05/29 00:47:48;;;;;;;2.08;1.10;;;;;;;22.40;39.18;101137.56;4519767;28;20454;-66
2023/05/29 00:49:58;;;;;;;1.08;0.93;;;;;;;22.43;38.77;101139.72;4522483;28;20342;-67
2023/05/29 00:52:10;;;;;;;1.00;0.82;;;;;;;22.40;38.83;101131.81;4521712;28;20021;-66
2023/05/29 00:54:26;;;;;;;1.15;0.90;;;;;;;22.42;38.83;101147.50;4520192;28;20042;-66
2023/05/29 00:56:39;;;;;;;1.73;1.00;;;;;;;22.42;39.22;101144.63;4530297;28;20013;-66
2023/05/29 00:58:51;;;;;;;1.45;0.90;;;;;;;22.40;39.29;101143.31;4529272;28;20032;-66
2023/05/29 01:01:03;;;;;;;1.13;0.82;;;;;;;22.40;38.98;101147.06;4520051;28;20089;-66
2023/05/29 01:03:17;;;;;;;1.60;1.00;;;;;;;22.41;39.36;101150.75;4536534;28;20036;-66
2023/05/29 01:05:28;;;;;;;1.20;0.95;;;;;;;22.40;39.22;101149.06;4537116;28;20134;-66
2023/05/29 01:07:39;;;;;;;1.05;0.95;;;;;;;22.38;39.41;101146.56;4521727;28;20041;-66
2023/05/29 01:09:49;;;;;;;1.38;0.90;;;;;;;22.34;39.41;101145.66;4536303;28;20033;-66
2023/05/29 01:12:35;;;;;;;1.80;1.10;;;;;;;22.41;39.44;101156.50;4519956;28;20844;-66
2023/05/29 01:15:21;;;;;;;1.55;0.90;;;;;;;22.39;38.96;101159.75;4516764;28;20049;-66
2023/05/29 01:18:09;;;;;;;0.98;0.80;;;;;;;22.35;39.10;101152.22;4522606;28;20052;-66
2023/05/29 01:20:26;;;;;;;;;;;;;;;22.40;39.21;101161.44;4509296;28;20045;-66
2023/05/29 01:23:26;;;;;;;1.50;0.88;;;;;;;22.37;39.32;101164.19;4522999;28;19921;-66
2023/05/29 01:25:43;;;;;;;1.67;0.90;;;;;;;22.40;39.13;101172.94;4506200;28;20056;-66
2023/05/29 01:27:55;;;;;;;1.70;0.90;;;;;;;22.38;38.65;101172.47;4519881;28;20926;-66
2023/05/29 01:30:07;;;;;;;1.50;0.80;;;;;;;22.37;39.10;101181.47;4535642;28;20527;-66
2023/05/29 01:32:20;;;;;;;1.17;1.08;;;;;;;22.39;38.77;101179.06;4521259;28;20044;-66
2023/05/29 01:34:30;;;;;;;1.42;0.90;;;;;;;22.37;38.87;101184.34;4521739;28;20046;-66
2023/05/29 01:36:41;;;;;;;1.63;1.00;;;;;;;22.37;38.85;101178.56;4521087;28;20037;-66
2023/05/29 01:38:54;;;;;;;1.02;0.93;;;;;;;22.20;38.60;101148.91;4521946;28;20396;-66
2023/05/29 01:41:05;;;;;;;1.48;0.90;;;;;;;22.37;38.88;101185.19;4520564;28;20033;-66
2023/05/29 01:43:17;;;;;;;1.20;0.90;;;;;;;22.34;38.64;101174.41;4536333;28;20021;-66
2023/05/29 01:45:28;;;;;;;1.90;0.98;;;;;;;22.36;38.64;101183.47;4521671;28;20413;-66
2023/05/29 01:47:39;;;;;;;1.63;1.00;;;;;;;22.33;38.44;101189.97;4537941;28;21241;-66
2023/05/29 01:49:51;;;;;;;1.63;0.80;;;;;;;22.37;38.44;101195.84;4520473;28;20547;-66
2023/05/29 01:52:02;;;;;;;1.42;0.70;;;;;;;22.36;38.09;101194.19;4537534;28;20033;-65
2023/05/29 01:54:13;;;;;;;1.90;0.80;;;;;;;22.33;37.76;101189.13;4538087;28;20037;-66
2023/05/29 01:56:26;;;;;;;1.70;0.80;;;;;;;22.35;37.97;101192.47;4524755;28;20611;-66
2023/05/29 01:58:38;;;;;;;1.45;0.80;;;;;;;22.36;37.22;101199.94;4525734;28;20029;-66
2023/05/29 02:00:49;;;;;;;0.98;0.70;;;;;;;22.35;37.16;101195.34;4506885;28;20041;-66
2023/05/29 02:03:00;;;;;;;1.33;0.90;;;;;;;22.34;37.17;101196.56;4523993;28;20508;-66
2023/05/29 02:05:10;;;;;;;1.45;0.90;;;;;;;22.32;37.24;101187.47;4524977;28;20040;-66
2023/05/29 02:07:21;;;;;;;1.38;0.85;;;;;;;22.34;36.87;101196.56;4522080;28;20033;-65
2023/05/29 02:09:32;;;;;;;1.42;0.90;;;;;;;22.31;37.09;101189.50;4525632;28;20087;-66
2023/05/29 02:11:45;;;;;;;1.65;0.77;;;;;;;22.35;36.54;101203.97;4541633;28;20656;-66
2023/05/29 02:13:56;;;;;;;1.42;0.80;;;;;;;22.34;36.58;101199.44;4525431;28;20138;-66
2023/05/29 02:16:06;;;;;;;1.58;0.75;;;;;;;22.34;36.48;101202.31;4523480;28;20036;-66
2023/05/29 02:18:18;;;;;;;1.20;0.70;;;;;;;22.32;36.71;101199.81;4539261;28;20029;-66
2023/05/29 02:20:29;;;;;;;2.05;0.80;;;;;;;22.33;36.60;101206.38;4531917;28;20115;-67
2023/05/29 02:22:48;;;;;;;1.35;0.80;;;;;;;22.32;36.21;101205.56;4523678;28;20143;-66
2023/05/29 02:24:58;;;;;;;1.67;0.90;;;;;;;22.33;36.65;101204.34;4523732;28;20045;-66
2023/05/29 02:27:10;;;;;;;1.83;0.77;;;;;;;22.29;36.54;101199.69;4538240;28;20052;-66
2023/05/29 02:29:20;;;;;;;1.95;0.70;;;;;;;22.31;36.55;101206.75;4521734;28;20052;-66
2023/05/29 02:31:31;;;;;;;1.20;0.75;;;;;;;22.32;36.19;101219.09;4522032;28;20026;-66
2023/05/29 02:33:43;;;;;;;1.42;0.85;;;;;;;22.32;35.90;101217.06;4538951;28;20056;-65
2023/05/29 02:35:53;;;;;;;2.00;0.80;;;;;;;22.31;36.14;101211.69;4524985;28;20378;-66
2023/05/29 02:38:04;;;;;;;2.42;0.90;;;;;;;22.30;35.92;101204.22;4523749;28;20037;-65
2023/05/29 02:40:15;;;;;;;1.60;0.77;;;;;;;22.32;35.96;101221.97;4523671;28;20116;-66
2023/05/29 02:42:25;;;;;;;0.90;0.68;;;;;;;22.28;36.38;101210.34;4538339;28;20099;-66
2023/05/29 02:44:35;;;;;;;1.58;0.85;;;;;;;22.28;36.11;101212.41;4523811;28;20122;-65
2023/05/29 02:46:46;;;;;;;1.65;0.80;;;;;;;22.30;35.73;101212.88;4525226;28;20025;-66
2023/05/29 02:48:56;;;;;;;1.73;0.80;;;;;;;22.29;35.99;101217.81;4538196;28;20318;-66
2023/05/29 02:51:07;;;;;;;2.40;1.08;;;;;;;22.28;35.58;101206.66;4523702;28;20040;-66
2023/05/29 02:53:18;;;;;;;1.15;0.75;;;;;;;22.28;35.74;101209.53;4540864;28;20084;-66
2023/05/29 02:55:28;;;;;;;1.30;0.60;;;;;;;22.29;36.04;101216.94;4526081;28;20048;-66
2023/05/29 02:57:39;;;;;;;1.77;0.80;;;;;;;22.29;36.33;101228.47;4524130;28;20028;-66
2023/05/29 02:59:51;;;;;;;0.90;0.68;;;;;;;22.26;35.75;101214.81;4522986;28;20045;-66
2023/05/29 03:02:01;;;;;;;1.77;0.80;;;;;;;22.29;35.61;101222.69;4521429;28;20113;-65
2023/05/29 03:04:13;;;;;;;2.10;0.80;;;;;;;22.25;36.13;101225.47;4523088;28;20174;-66
2023/05/29 03:06:23;;;;;;;1.35;0.77;;;;;;;22.27;35.57;101225.09;4532351;28;20106;-66
2023/05/29 03:08:35;;;;;;;1.95;0.88;;;;;;;22.07;35.78;101193.28;4523047;28;20470;-65
2023/05/29 03:10:47;;;;;;;1.10;0.70;;;;;;;22.26;35.92;101227.16;4523815;28;20180;-66
2023/05/29 03:12:58;;;;;;;1.38;0.70;;;;;;;22.27;35.77;101225.09;4522572;28;20029;-66
2023/05/29 03:15:10;;;;;;;1.83;0.80;;;;;;;22.27;35.89;101223.06;4522402;28;20548;-66
2023/05/29 03:17:20;;;;;;;1.45;0.80;;;;;;;22.26;35.51;101223.44;4531873;28;20029;-65
2023/05/29 03:19:31;;;;;;;1.55;0.70;;;;;;;22.26;35.46;101217.69;4539740;28;20056;-66
2023/05/29 03:21:41;;;;;;;1.45;0.80;;;;;;;22.20;35.45;101208.47;4513028;28;20087;-66
2023/05/29 03:23:52;;;;;;;1.30;0.70;;;;;;;22.25;35.52;101222.59;4538672;28;20067;-66
2023/05/29 03:26:05;;;;;;;1.38;0.70;;;;;;;22.23;35.66;101218.41;4523405;28;20037;-66
2023/05/29 03:28:17;;;;;;;1.95;0.73;;;;;;;22.25;35.22;101218.91;4522693;28;20029;-66
2023/05/29 03:30:28;;;;;;;2.08;0.90;;;;;;;22.21;35.24;101216.72;4523683;28;20805;-66
2023/05/29 03:32:39;;;;;;;1.15;0.65;;;;;;;22.21;35.30;101218.78;4521284;28;20035;-66
2023/05/29 03:34:50;;;;;;;1.65;0.98;;;;;;;22.27;35.27;101230.84;4522197;28;20121;-66
2023/05/29 03:37:01;;;;;;;1.17;0.70;;;;;;;22.26;35.12;101224.28;4524486;28;20033;-66
2023/05/29 03:39:13;;;;;;;1.40;0.65;;;;;;;22.25;35.54;101221.78;4538439;28;20029;-65
2023/05/29 03:41:25;;;;;;;1.52;0.90;;;;;;;22.26;35.33;101223.44;4537413;28;20120;-65
2023/05/29 03:43:37;;;;;;;1.50;0.70;;;;;;;22.23;35.35;101222.94;4521831;28;20694;-66
2023/05/29 03:45:48;;;;;;;1.30;0.70;;;;;;;22.23;35.51;101222.13;4538218;28;20040;-67
2023/05/29 03:47:58;;;;;;;0.63;0.55;;;;;;;22.19;35.11;101224.91;4539693;28;20476;-69
2023/05/29 03:50:09;;;;;;;1.38;0.60;;;;;;;22.20;35.39;101226.56;4523504;28;20477;-66
2023/05/29 03:52:21;;;;;;;0.73;0.70;;;;;;;22.19;35.14;101224.91;4530345;28;20126;-66
2023/05/29 03:54:32;;;;;;;1.80;0.80;;;;;;;22.25;35.07;101233.28;4537688;28;20039;-67
2023/05/29 03:56:44;;;;;;;1.25;0.70;;;;;;;22.23;35.26;101235.66;4539078;28;21369;-66
2023/05/29 03:58:57;;;;;;;0.98;0.73;;;;;;;22.18;35.30;101240.44;4522294;28;20079;-65
2023/05/29 04:01:09;;;;;;;1.75;0.73;;;;;;;22.20;35.13;101243.81;4523519;28;20056;-66
2023/05/29 04:03:19;;;;;;;1.52;0.70;;;;;;;22.21;35.36;101250.41;4522253;28;20034;-65
2023/05/29 04:05:30;;;;;;;1.55;0.70;;;;;;;22.20;35.16;101249.56;4522196;28;21307;-66
2023/05/29 04:07:41;;;;;;;0.88;0.80;;;;;;;22.20;35.73;101252.44;4521633;28;20132;-66
2023/05/29 04:09:52;;;;;;;1.27;0.75;;;;;;;22.22;35.45;101254.94;4522382;28;20511;-66
2023/05/29 04:12:05;;;;;;;1.77;0.70;;;;;;;22.19;35.33;101247.06;4523625;28;20417;-66
2023/05/29 04:14:18;;;;;;;1.05;0.65;;;;;;;22.20;35.61;101255.31;4524544;28;20037;-66
2023/05/29 04:16:28;;;;;;;1.30;0.73;;;;;;;22.17;35.35;101244.53;4519850;28;20486;-65
2023/05/29 04:18:39;;;;;;;2.72;0.82;;;;;;;22.20;35.60;101255.31;4530239;28;20067;-66
2023/05/29 04:20:50;;;;;;;1.30;0.70;;;;;;;22.17;35.43;101253.16;4521009;28;20120;-65
2023/05/29 04:23:01;;;;;;;1.42;0.90;;;;;;;22.18;35.74;101257.69;4521061;28;20026;-65
2023/05/29 04:25:11;;;;;;;0.60;0.60;;;;;;;22.19;35.73;101265.16;4523298;28;20283;-66
2023/05/29 04:27:22;;;;;;;1.65;0.80;;;;;;;22.16;35.48;101256.41;4523169;28;20032;-65
2023/05/29 04:29:33;;;;;;;1.65;0.80;;;;;;;22.17;35.55;101261.78;4521096;28;20509;-66
2023/05/29 04:31:44;;;;;;;1.65;0.70;;;;;;;22.18;35.43;101254.84;4507633;28;20070;-65
2023/05/29 04:33:55;;;;;;;1.17;0.57;;;;;;;22.18;35.69;101257.69;4538446;28;20120;-65
2023/05/29 04:36:08;;;;;;;1.52;0.85;;;;;;;22.19;35.57;101256.53;4538050;28;20037;-66
2023/05/29 04:38:24;;;;;;;2.13;0.80;;;;;;;22.19;35.47;101258.56;4538864;28;20029;-65
2023/05/29 04:40:36;;;;;;;0.93;0.68;;;;;;;22.17;35.57;101261.78;4522072;28;20843;-66
2023/05/29 04:42:47;;;;;;;1.65;0.68;;;;;;;22.16;36.08;101263.00;4523054;28;20028;-66
2023/05/29 04:45:00;;;;;;;1.42;0.80;;;;;;;22.17;35.63;101267.53;4506745;28;20037;-65
2023/05/29 04:47:12;;;;;;;1.48;0.80;;;;;;;22.12;36.05;101259.16;4522957;28;20852;-66
2023/05/29 04:49:23;;;;;;;1.40;0.60;;;;;;;22.18;36.12;101269.22;4532155;28;20088;-66
2023/05/29 04:51:33;;;;;;;2.58;0.80;;;;;;;22.17;35.96;101266.69;4538023;28;20508;-65
2023/05/29 04:53:44;;;;;;;1.00;0.70;;;;;;;22.16;35.63;101271.63;4525865;28;20021;-65
2023/05/29 04:55:55;;;;;;;1.50;0.77;;;;;;;22.16;36.07;101270.78;4540968;28;20037;-66
2023/05/29 04:58:06;;;;;;;0.98;0.60;;;;;;;22.15;35.81;101275.69;4523043;28;20592;-65
2023/05/29 05:00:17;;;;;;;1.48;0.70;;;;;;;22.12;35.59;101269.81;4540966;28;20036;-65
2023/05/29 05:02:28;;;;;;;1.35;0.70;;;;;;;22.15;35.88;101284.31;4515773;28;20048;-65
2023/05/29 05:04:39;;;;;;;2.00;0.80;;;;;;;22.16;35.67;101294.63;4524611;28;20035;-65
2023/05/29 05:06:51;;;;;;;1.30;0.63;;;;;;;22.12;35.74;101284.19;4523155;28;20050;-65
2023/05/29 05:09:01;;;;;;;1.83;0.88;;;;;;;22.16;35.87;101302.41;4522871;28;20162;-66
2023/05/29 05:11:13;;;;;;;1.00;0.70;;;;;;;22.16;35.95;101303.25;4541294;28;20136;-65
2023/05/29 05:13:24;;;;;;;1.30;0.70;;;;;;;22.16;35.91;101302.41;4509603;28;20603;-65
2023/05/29 05:15:35;;;;;;;2.45;0.70;;;;;;;22.13;36.29;101298.22;4524907;28;20014;-66
2023/05/29 05:17:46;;;;;;;1.48;0.73;;;;;;;22.14;36.08;101297.03;4539927;28;20268;-65
2023/05/29 05:19:57;;;;;;;0.85;0.52;;;;;;;22.14;36.39;101299.91;4524362;28;20056;-65
2023/05/29 05:22:07;;;;;;;1.65;0.70;;;;;;;22.16;36.34;101308.16;4539041;28;20033;-65
2023/05/29 05:24:18;;;;;;;1.70;0.77;;;;;;;22.13;36.31;101286.72;4530357;28;20578;-65
2023/05/29 05:26:28;;;;;;;1.48;0.60;;;;;;;22.12;36.99;101293.66;4539407;28;20119;-65
2023/05/29 05:28:39;;;;;;;1.42;0.70;;;;;;;22.11;36.28;101292.00;4539207;28;20060;-65
2023/05/29 05:30:51;;;;;;;1.08;0.80;;;;;;;22.12;36.24;101284.19;4523267;28;20116;-65
2023/05/29 05:33:02;;;;;;;0.77;0.52;;;;;;;22.12;36.44;101296.53;4523597;28;20072;-66
2023/05/29 05:35:13;;;;;;;1.77;0.70;;;;;;;22.14;36.28;101290.44;4523810;28;20033;-65
2023/05/29 05:37:24;;;;;;;1.73;0.73;;;;;;;22.13;36.44;101288.75;4524620;28;20489;-65
2023/05/29 05:39:35;;;;;;;1.10;0.65;;;;;;;22.12;36.53;101287.91;4524138;28;20441;-65
2023/05/29 05:41:45;;;;;;;1.92;0.70;;;;;;;22.10;36.31;101283.72;4525446;28;20674;-65
2023/05/29 05:43:59;;;;;;;1.25;0.80;;;;;;;22.10;36.94;101283.72;4525365;28;20052;-66
2023/05/29 05:46:17;;;;;;;1.73;0.80;;;;;;;22.13;36.79;101295.34;4524367;28;20061;-65
2023/05/29 05:48:27;;;;;;;1.10;0.60;;;;;;;22.07;36.73;101285.28;4524363;28;20075;-65
2023/05/29 05:50:38;;;;;;;1.73;0.80;;;;;;;22.09;36.66;101294.38;4523784;28;20113;-65
2023/05/29 05:52:49;;;;;;;1.55;0.75;;;;;;;22.11;36.94;101300.63;4542753;28;20025;-65
2023/05/29 05:55:00;;;;;;;1.45;0.65;;;;;;;22.13;36.80;101311.75;4522530;28;20836;-66
2023/05/29 05:57:11;;;;;;;1.52;0.70;;;;;;;22.04;36.88;101286.00;4526513;28;20270;-65
2023/05/29 05:59:22;;;;;;;1.02;0.60;;;;;;;22.11;36.53;101296.91;4542148;28;20664;-65
2023/05/29 06:01:33;;;;;;;2.05;0.80;;;;;;;22.05;37.04;101299.19;4527057;28;20810;-65
2023/05/29 06:03:43;;;;;;;1.30;0.75;;;;;;;22.07;36.65;101296.78;4541094;28;20124;-65
2023/05/29 06:05:54;;;;;;;1.45;0.93;;;;;;;22.10;36.74;101307.56;4525271;28;20622;-65
2023/05/29 06:08:05;;;;;;;0.80;0.47;;;;;;;22.12;38.43;101310.06;4522429;28;20583;-65
2023/05/29 06:10:16;;;;;;;1.35;0.88;;;;;;;22.10;38.47;101313.31;4522892;28;20029;-65
2023/05/29 06:12:27;;;;;;;1.10;0.60;;;;;;;22.07;38.00;101314.03;4539501;28;20090;-65
2023/05/29 06:14:46;;;;;;;1.55;0.70;;;;;;;22.10;38.78;101321.94;4523076;28;20611;-65
2023/05/29 06:16:57;;;;;;;1.02;0.63;;;;;;;22.08;39.92;101315.72;4533522;28;20549;-65
2023/05/29 06:19:10;;;;;;;2.00;0.70;;;;;;;22.10;38.84;101324.81;4532668;28;20098;-65
2023/05/29 06:21:34;;;;;;;1.52;0.73;;;;;;;22.07;38.29;101318.97;4522783;28;20037;-65
2023/05/29 06:23:45;;;;;;;1.13;0.70;;;;;;;22.06;37.83;101320.97;4538484;28;20638;-65
2023/05/29 06:25:56;;;;;;;0.88;0.52;;;;;;;22.08;37.16;101321.47;4538711;28;20049;-65
2023/05/29 06:28:07;;;;;;;1.00;0.73;;;;;;;22.06;37.29;101323.88;4532239;28;20065;-65
2023/05/29 06:30:17;;;;;;;1.25;0.70;;;;;;;22.06;37.55;101323.88;4523588;28;20029;-65
2023/05/29 06:32:28;;;;;;;1.20;0.60;;;;;;;22.06;37.62;101315.22;4539050;28;20039;-65
2023/05/29 06:34:41;;;;;;;2.05;0.80;;;;;;;22.07;37.41;101319.78;4540287;28;20091;-65
2023/05/29 06:36:51;;;;;;;1.25;0.73;;;;;;;22.06;37.82;101318.09;4524518;28;20072;-65
2023/05/29 06:39:02;;;;;;;1.13;0.70;;;;;;;22.02;38.58;101305.63;4519898;28;20504;-65
2023/05/29 06:41:12;;;;;;;1.95;0.73;;;;;;;22.07;38.86;101318.97;4539867;28;20768;-65
2023/05/29 06:43:22;;;;;;;2.10;0.70;;;;;;;22.08;37.97;101309.97;4514015;28;20092;-65
2023/05/29 06:45:33;;;;;;;0.95;0.73;;;;;;;22.06;38.36;101312.34;4521346;28;20041;-65
2023/05/29 06:47:44;;;;;;;1.52;0.80;;;;;;;22.07;38.32;101313.22;4539327;28;20129;-65
2023/05/29 06:49:55;;;;;;;1.52;0.90;;;;;;;22.06;37.70;101302.88;4538441;28;21068;-65
2023/05/29 06:52:06;;;;;;;1.77;0.80;;;;;;;22.06;37.97;101298.00;4524011;28;20051;-65
2023/05/29 06:54:35;;;;;;;2.08;0.80;;;;;;;22.01;38.31;101286.72;4523483;28;20041;-65
2023/05/29 06:56:45;;;;;;;1.52;0.70;;;;;;;22.06;37.59;101305.75;4522667;28;20038;-66
2023/05/29 06:58:56;;;;;;;1.17;0.70;;;;;;;22.06;38.05;101303.75;4539183;28;20044;-65
2023/05/29 07:01:06;;;;;;;1.55;0.70;;;;;;;22.03;37.77;101307.34;4521444;28;20098;-65
2023/05/29 07:03:19;;;;;;;1.30;0.68;;;;;;;22.06;38.38;101308.63;4538185;28;20040;-65
2023/05/29 07:05:30;;;;;;;1.50;0.70;;;;;;;22.05;38.30;101318.47;4539958;28;20039;-65
2023/05/29 07:07:40;;;;;;;1.70;0.73;;;;;;;22.01;37.98;101315.47;4514677;28;20044;-65
2023/05/29 07:09:52;;;;;;;1.30;0.70;;;;;;;22.05;38.05;101321.34;4522624;28;20618;-65
2023/05/29 07:12:03;;;;;;;1.95;0.80;;;;;;;22.05;38.32;101327.94;4521936;28;20345;-65
2023/05/29 07:14:14;;;;;;;1.45;0.77;;;;;;;21.92;38.06;101305.28;4523159;28;20036;-64
2023/05/29 07:16:25;;;;;;;1.35;0.77;;;;;;;21.99;38.13;101320.72;4523603;28;20072;-65
2023/05/29 07:18:41;;;;;;;2.08;0.70;;;;;;;22.03;39.06;101318.84;4523818;28;20045;-64
2023/05/29 07:20:52;;;;;;;1.45;0.70;;;;;;;22.05;38.29;101339.44;4539690;28;20629;-64
2023/05/29 07:23:04;;;;;;;1.90;0.70;;;;;;;22.02;38.53;101340.13;4529227;28;20111;-64
2023/05/29 07:25:16;;;;;;;1.30;0.70;;;;;;;22.05;38.27;101347.22;4521943;28;20037;-64
2023/05/29 07:27:27;;;;;;;1.90;0.80;;;;;;;22.00;38.78;101341.72;4539465;28;20358;-64
2023/05/29 07:29:38;;;;;;;0.82;0.57;;;;;;;22.04;38.07;101355.00;4524228;28;20142;-64
2023/05/29 07:31:50;;;;;;;2.28;0.82;;;;;;;22.02;38.59;101354.50;4530687;28;20033;-64
2023/05/29 07:34:00;;;;;;;1.30;0.73;;;;;;;22.02;38.38;101357.38;4521106;28;20040;-64
2023/05/29 07:36:12;;;;;;;2.25;0.80;;;;;;;22.05;38.69;101356.69;4538300;28;20040;-64
2023/05/29 07:38:22;;;;;;;1.60;0.70;;;;;;;22.03;37.97;101353.34;4537956;28;20113;-65
2023/05/29 07:40:33;;;;;;;1.63;0.60;;;;;;;22.02;38.16;101357.38;4521649;28;20113;-65
2023/05/29 07:42:44;;;;;;;1.63;0.80;;;;;;;22.03;37.60;101356.22;4522421;28;20041;-64
2023/05/29 07:44:54;;;;;;;1.27;0.70;;;;;;;22.00;37.73;101348.31;4520439;28;20310;-64
2023/05/29 07:47:07;;;;;;;2.15;0.82;;;;;;;21.98;37.78;101344.09;4539086;28;20082;-65
2023/05/29 07:49:22;;;;;;;1.05;0.70;;;;;;;22.02;37.44;101348.75;4521529;28;20064;-65
2023/05/29 07:51:33;;;;;;;1.08;0.70;;;;;;;22.01;37.38;101358.59;4521129;28;20040;-64
2023/05/29 07:53:46;;;;;;;1.75;0.75;;;;;;;22.02;37.50;101351.63;4521006;28;20218;-65
2023/05/29 07:55:56;;;;;;;1.30;0.70;;;;;;;22.01;38.09;101349.13;4538726;28;20578;-64
2023/05/29 07:58:09;;;;;;;2.30;0.70;;;;;;;22.00;37.90;101348.31;4521591;28;20044;-65
2023/05/29 08:00:19;;;;;;;1.98;0.85;;;;;;;22.02;38.17;101351.63;4537916;28;20088;-64
2023/05/29 08:02:30;;;;;;;1.40;0.60;;;;;;;22.02;38.60;101351.63;4524561;28;20033;-66
2023/05/29 08:05:04;;;;;;;1.92;0.70;;;;;;;22.04;38.54;101355.00;4523007;28;20044;-65
2023/05/29 08:07:15;;;;;;;1.70;0.80;;;;;;;22.02;38.45;101351.63;4539110;28;20040;-64
2023/05/29 08:09:26;;;;;;;0.85;0.60;;;;;;;22.03;38.53;101359.09;4521643;28;20034;-64
2023/05/29 08:11:37;;;;;;;1.48;0.73;;;;;;;22.00;37.93;101348.31;4520967;28;20099;-65
2023/05/29 08:13:47;;;;;;;1.80;0.80;;;;;;;22.03;37.88;101353.34;4538577;28;20028;-65
2023/05/29 08:15:58;;;;;;;1.30;0.65;;;;;;;22.02;37.83;101350.81;4523835;28;20065;-65
2023/05/29 08:18:09;;;;;;;1.48;0.82;;;;;;;22.01;38.78;101347.09;4537203;28;20025;-64
2023/05/29 08:20:20;;;;;;;1.38;0.70;;;;;;;22.00;38.77;101339.69;4522633;28;20040;-65
2023/05/29 08:22:31;;;;;;;1.05;0.60;;;;;;;22.01;38.51;101347.09;4522868;28;20044;-64
2023/05/29 08:24:42;;;;;;;1.15;0.80;;;;;;;21.99;38.34;101348.66;4522061;28;20040;-64
2023/05/29 08:26:52;;;;;;;1.67;0.85;;;;;;;22.03;38.97;101352.47;4523859;28;20458;-64
2023/05/29 08:29:03;;;;;;;1.33;0.68;;;;;;;22.01;38.56;101343.38;4525025;28;20041;-65
2023/05/29 08:31:13;;;;;;;1.05;0.60;;;;;;;22.01;38.50;101349.97;4523400;28;20461;-65
2023/05/29 08:33:24;;;;;;;1.92;0.70;;;;;;;22.02;38.16;101345.06;4514420;28;20125;-65
2023/05/29 08:35:35;;;;;;;1.38;0.77;;;;;;;22.00;38.40;101348.31;4521755;28;20033;-65
2023/05/29 08:37:46;;;;;;;1.52;0.77;;;;;;;22.01;38.46;101341.34;4523215;28;20029;-65
2023/05/29 08:39:56;;;;;;;1.50;0.70;;;;;;;22.02;39.13;101359.44;4522524;28;20237;-65
2023/05/29 08:42:17;;;;;;;1.58;0.80;;;;;;;22.00;38.92;101351.19;4522285;28;20042;-65
2023/05/29 08:44:34;;;;;;;2.03;0.80;;;;;;;22.01;38.50;101349.97;4522415;28;20496;-65
2023/05/29 08:46:46;;;;;;;1.15;0.75;;;;;;;22.03;39.09;101361.09;4536693;28;20126;-65
2023/05/29 08:48:58;;;;;;;2.72;0.98;;;;;;;22.00;38.31;101348.31;4523336;28;20030;-65
2023/05/29 08:51:10;;;;;;;1.52;0.77;;;;;;;22.01;38.21;101346.25;4523354;28;20041;-65
2023/05/29 08:53:24;;;;;;;2.30;0.80;;;;;;;22.00;38.83;101351.19;4523360;28;20631;-65
2023/05/29 08:55:35;;;;;;;1.63;0.70;;;;;;;22.04;39.15;101359.94;4523114;28;20037;-64
2023/05/29 08:57:46;;;;;;;1.35;0.70;;;;;;;22.02;39.11;101356.56;4523621;28;20569;-65
2023/05/29 08:59:58;;;;;;;2.22;0.77;;;;;;;22.04;38.91;101357.88;4522176;28;20044;-65
2023/05/29 09:02:10;;;;;;;1.77;0.82;;;;;;;22.03;38.38;101364.81;4522328;28;20033;-65
2023/05/29 09:04:20;;;;;;;1.63;0.70;;;;;;;22.04;39.11;101359.94;4522486;28;21000;-66
2023/05/29 09:06:31;;;;;;;1.08;0.65;;;;;;;22.01;38.64;101349.97;4537385;28;20048;-66
2023/05/29 09:08:41;;;;;;;2.15;0.70;;;;;;;21.96;38.35;101349.38;4522741;28;20036;-67
2023/05/29 09:10:52;;;;;;;1.63;0.70;;;;;;;22.00;38.88;101356.94;4521738;28;20034;-67
2023/05/29 09:13:03;;;;;;;2.13;0.80;;;;;;;22.04;38.51;101357.88;4521491;28;20045;-66
2023/05/29 09:15:18;;;;;;;1.27;0.60;;;;;;;21.98;39.51;101347.81;4520739;28;20514;-66
2023/05/29 09:17:33;;;;;;;1.25;0.70;;;;;;;21.99;37.98;101358.09;4523102;28;20071;-65
2023/05/29 09:19:44;;;;;;;1.85;0.70;;;;;;;22.04;38.46;101355.00;4521084;28;20034;-65
2023/05/29 09:22:02;;;;;;;2.72;0.90;;;;;;;22.05;39.01;101358.72;4522104;28;20038;-66
2023/05/29 09:24:14;;;;;;;1.02;0.70;;;;;;;22.03;39.87;101373.44;4523062;28;20051;-65
2023/05/29 09:26:24;;;;;;;2.38;0.80;;;;;;;22.05;39.61;101364.47;4523088;28;20120;-66
2023/05/29 09:28:35;;;;;;;1.50;0.80;;;;;;;22.02;38.97;101363.13;4522038;28;20115;-67
2023/05/29 09:30:46;;;;;;;2.17;0.80;;;;;;;22.04;39.33;101372.25;4521520;28;20357;-67
2023/05/29 09:33:00;;;;;;;1.90;0.82;;;;;;;22.00;39.01;101359.81;4523441;28;20052;-65
2023/05/29 09:35:11;;;;;;;1.50;0.70;;;;;;;22.02;38.59;101357.38;4521598;28;20063;-67
2023/05/29 09:37:22;;;;;;;1.42;0.77;;;;;;;22.04;39.50;101362.81;4522619;28;20052;-65
2023/05/29 09:39:33;;;;;;;1.67;0.70;;;;;;;22.03;38.78;101366.84;4522426;28;20034;-66
2023/05/29 09:41:48;;;;;;;1.95;0.80;;;;;;;21.99;39.55;101358.09;4523392;28;20029;-66
2023/05/29 09:44:00;;;;;;;2.13;0.77;;;;;;;22.05;38.87;101368.19;4521385;28;20041;-66
2023/05/29 09:46:15;;;;;;;1.33;0.70;;;;;;;22.05;39.05;101376.81;4521203;28;20037;-65
2023/05/29 09:48:26;;;;;;;1.58;0.80;;;;;;;22.03;38.88;101364.81;4521015;28;20047;-65
2023/05/29 09:50:37;;;;;;;1.58;0.80;;;;;;;22.06;38.69;101364.09;4520405;28;20044;-65
2023/05/29 09:52:47;;;;;;;2.13;0.90;;;;;;;22.05;38.67;101368.19;4521614;28;20029;-65
2023/05/29 09:54:58;;;;;;;1.33;0.70;;;;;;;22.03;38.67;101356.22;4520764;28;20218;-65
2023/05/29 09:57:10;;;;;;;1.77;0.80;;;;;;;22.08;38.20;101360.88;4535672;28;20025;-65
2023/05/29 09:59:23;;;;;;;2.03;0.70;;;;;;;22.02;38.38;101345.06;4503928;28;20104;-65
2023/05/29 10:01:34;;;;;;;1.67;0.70;;;;;;;22.06;38.63;101348.88;4520596;28;20091;-65
2023/05/29 10:03:45;;;;;;;2.28;0.68;;;;;;;22.08;38.44;101355.97;4521046;28;20090;-66
2023/05/29 10:05:59;;;;;;;1.30;0.70;;;;;;;22.08;39.02;101355.97;4520530;28;20057;-65
2023/05/29 10:08:14;;;;;;;2.00;0.73;;;;;;;22.02;39.46;101347.94;4525943;28;20040;-65
2023/05/29 10:10:26;;;;;;;1.73;0.90;;;;;;;22.06;38.63;101354.63;4535224;28;20036;-65
2023/05/29 10:12:38;;;;;;;2.17;0.98;;;;;;;22.00;38.33;101342.56;4519989;28;20796;-65
2023/05/29 10:14:50;;;;;;;1.00;0.70;;;;;;;22.03;38.30;101341.84;4524752;28;20041;-65